sensor_id;sensor_type;location;lat;lon;timestamp;pressure;altitude;pressure_sealevel;temperature;humidity
13581;BME280;6861;46.170;7.222;2024-01-15T00:01:14;95128.16;;;4.57;53.59
13581;BME280;6861;46.170;7.222;2024-01-15T00:03:43;95118.28;;;4.54;54.08
13581;BME280;6861;46.170;7.222;2024-01-15T00:06:14;95120.34;;;4.52;54.35
13581;BME280;6861;46.170;7.222;2024-01-15T00:08:42;95117.22;;;4.50;54.29
13581;BME280;6861;46.170;7.222;2024-01-15T00:11:10;95123.97;;;4.51;54.14
13581;BME280;6861;46.170;7.222;2024-01-15T00:13:38;95122.50;;;4.60;54.25
13581;BME280;6861;46.170;7.222;2024-01-15T00:16:06;95126.19;;;4.70;54.18
13581;BME280;6861;46.170;7.222;2024-01-15T00:18:36;95118.16;;;4.71;53.94
13581;BME280;6861;46.170;7.222;2024-01-15T00:21:04;95114.50;;;4.67;54.10
13581;BME280;6861;46.170;7.222;2024-01-15T00:23:33;95120.50;;;4.73;53.84
13581;BME280;6861;46.170;7.222;2024-01-15T00:26:01;95106.53;;;4.74;54.13
13581;BME280;6861;46.170;7.222;2024-01-15T00:28:29;95108.59;;;4.72;54.15
13581;BME280;6861;46.170;7.222;2024-01-15T00:30:57;95117.63;;;4.69;54.18
13581;BME280;6861;46.170;7.222;2024-01-15T00:33:26;95128.16;;;4.57;54.71
13581;BME280;6861;46.170;7.222;2024-01-15T00:35:55;95122.13;;;4.47;54.65
13581;BME280;6861;46.170;7.222;2024-01-15T00:38:23;95126.44;;;4.36;55.10
13581;BME280;6861;46.170;7.222;2024-01-15T00:40:52;95124.31;;;4.28;55.28
13581;BME280;6861;46.170;7.222;2024-01-15T00:43:20;95121.44;;;4.24;55.45
13581;BME280;6861;46.170;7.222;2024-01-15T00:45:48;95118.53;;;4.21;55.15
13581;BME280;6861;46.170;7.222;2024-01-15T00:48:16;95117.56;;;4.27;55.40
13581;BME280;6861;46.170;7.222;2024-01-15T00:50:45;95107.75;;;4.34;55.05
13581;BME280;6861;46.170;7.222;2024-01-15T00:53:14;95104.44;;;4.39;54.88
13581;BME280;6861;46.170;7.222;2024-01-15T00:55:43;95097.78;;;4.48;54.91
13581;BME280;6861;46.170;7.222;2024-01-15T00:58:11;95096.00;;;4.53;54.77
13581;BME280;6861;46.170;7.222;2024-01-15T01:00:39;95091.31;;;4.50;54.76
13581;BME280;6861;46.170;7.222;2024-01-15T01:03:08;95090.50;;;4.45;54.73
13581;BME280;6861;46.170;7.222;2024-01-15T01:05:37;95091.19;;;4.35;55.33
13581;BME280;6861;46.170;7.222;2024-01-15T01:08:05;95089.13;;;4.32;55.40
13581;BME280;6861;46.170;7.222;2024-01-15T01:10:35;95082.34;;;4.26;55.38
13581;BME280;6861;46.170;7.222;2024-01-15T01:13:03;95090.03;;;4.16;55.66
13581;BME280;6861;46.170;7.222;2024-01-15T01:15:32;95092.06;;;4.14;55.79
13581;BME280;6861;46.170;7.222;2024-01-15T01:18:00;95084.25;;;4.09;56.24
13581;BME280;6861;46.170;7.222;2024-01-15T01:20:29;95091.34;;;3.91;56.46
13581;BME280;6861;46.170;7.222;2024-01-15T01:22:57;95088.09;;;3.79;56.54
13581;BME280;6861;46.170;7.222;2024-01-15T01:25:26;95079.75;;;3.72;57.29
13581;BME280;6861;46.170;7.222;2024-01-15T01:27:56;95077.72;;;3.74;57.14
13581;BME280;6861;46.170;7.222;2024-01-15T01:30:25;95064.53;;;3.76;56.91
13581;BME280;6861;46.170;7.222;2024-01-15T01:32:53;95056.03;;;3.80;57.02
13581;BME280;6861;46.170;7.222;2024-01-15T01:35:22;95052.53;;;3.91;56.63
13581;BME280;6861;46.170;7.222;2024-01-15T01:37:50;95044.41;;;4.10;56.76
13581;BME280;6861;46.170;7.222;2024-01-15T01:40:19;95046.06;;;4.21;56.57
13581;BME280;6861;46.170;7.222;2024-01-15T01:42:48;95037.84;;;4.29;56.06
13581;BME280;6861;46.170;7.222;2024-01-15T01:45:18;95037.25;;;4.22;56.55
13581;BME280;6861;46.170;7.222;2024-01-15T01:47:46;95040.09;;;4.20;56.97
13581;BME280;6861;46.170;7.222;2024-01-15T01:50:15;95048.59;;;4.16;56.59
13581;BME280;6861;46.170;7.222;2024-01-15T01:52:43;95050.13;;;4.12;56.89
13581;BME280;6861;46.170;7.222;2024-01-15T01:55:12;95053.69;;;4.06;56.66
13581;BME280;6861;46.170;7.222;2024-01-15T01:57:41;95045.16;;;4.05;57.17
13581;BME280;6861;46.170;7.222;2024-01-15T02:00:12;95031.41;;;4.05;56.98
13581;BME280;6861;46.170;7.222;2024-01-15T02:02:42;95036.84;;;4.03;56.86
13581;BME280;6861;46.170;7.222;2024-01-15T02:05:12;95041.78;;;4.05;57.29
13581;BME280;6861;46.170;7.222;2024-01-15T02:07:42;95033.56;;;4.13;56.98
13581;BME280;6861;46.170;7.222;2024-01-15T02:10:11;95029.22;;;4.18;57.12
13581;BME280;6861;46.170;7.222;2024-01-15T02:12:40;95036.28;;;4.28;56.86
13581;BME280;6861;46.170;7.222;2024-01-15T02:15:08;95019.47;;;4.31;56.85
13581;BME280;6861;46.170;7.222;2024-01-15T02:18:00;95017.03;;;4.19;57.15
13581;BME280;6861;46.170;7.222;2024-01-15T02:20:29;95030.47;;;4.16;56.99
13581;BME280;6861;46.170;7.222;2024-01-15T02:23:07;95030.03;;;4.24;57.38
13581;BME280;6861;46.170;7.222;2024-01-15T02:25:37;95026.97;;;4.32;57.08
13581;BME280;6861;46.170;7.222;2024-01-15T02:28:06;95026.75;;;4.39;57.02
13581;BME280;6861;46.170;7.222;2024-01-15T02:30:38;95018.75;;;4.45;56.95
13581;BME280;6861;46.170;7.222;2024-01-15T02:33:07;95012.06;;;4.49;57.00
13581;BME280;6861;46.170;7.222;2024-01-15T02:35:36;95005.59;;;4.52;56.89
13581;BME280;6861;46.170;7.222;2024-01-15T02:38:06;95013.13;;;4.53;57.07
13581;BME280;6861;46.170;7.222;2024-01-15T02:40:36;95016.75;;;4.52;57.02
13581;BME280;6861;46.170;7.222;2024-01-15T02:43:04;95012.63;;;4.56;56.77
13581;BME280;6861;46.170;7.222;2024-01-15T02:45:32;95020.66;;;4.60;57.10
13581;BME280;6861;46.170;7.222;2024-01-15T02:48:01;95014.75;;;4.65;57.27
13581;BME280;6861;46.170;7.222;2024-01-15T02:50:29;95018.41;;;4.74;57.08
13581;BME280;6861;46.170;7.222;2024-01-15T02:52:57;95018.22;;;4.85;56.82
13581;BME280;6861;46.170;7.222;2024-01-15T02:55:27;95036.16;;;4.92;56.89
13581;BME280;6861;46.170;7.222;2024-01-15T02:57:56;95035.53;;;4.75;57.39
13581;BME280;6861;46.170;7.222;2024-01-15T03:00:24;95022.94;;;4.51;57.77
13581;BME280;6861;46.170;7.222;2024-01-15T03:02:53;95031.16;;;4.38;58.27
13581;BME280;6861;46.170;7.222;2024-01-15T03:05:21;95046.94;;;4.37;58.08
13581;BME280;6861;46.170;7.222;2024-01-15T03:07:49;95047.75;;;4.42;58.14
13581;BME280;6861;46.170;7.222;2024-01-15T03:10:18;95056.75;;;4.35;58.58
13581;BME280;6861;46.170;7.222;2024-01-15T03:12:47;95048.41;;;4.22;58.65
13581;BME280;6861;46.170;7.222;2024-01-15T03:15:16;95054.56;;;4.16;58.61
13581;BME280;6861;46.170;7.222;2024-01-15T03:17:45;95055.09;;;4.18;58.73
13581;BME280;6861;46.170;7.222;2024-01-15T03:20:14;95058.75;;;4.22;59.24
13581;BME280;6861;46.170;7.222;2024-01-15T03:22:42;95040.97;;;4.31;58.84
13581;BME280;6861;46.170;7.222;2024-01-15T03:25:10;95024.47;;;4.47;58.95
13581;BME280;6861;46.170;7.222;2024-01-15T03:27:38;95029.72;;;4.57;58.88
13581;BME280;6861;46.170;7.222;2024-01-15T03:30:09;95004.94;;;4.72;58.80
13581;BME280;6861;46.170;7.222;2024-01-15T03:32:38;94994.63;;;4.82;58.64
13581;BME280;6861;46.170;7.222;2024-01-15T03:35:07;94999.34;;;4.95;58.73
13581;BME280;6861;46.170;7.222;2024-01-15T03:37:35;95011.59;;;5.05;58.50
13581;BME280;6861;46.170;7.222;2024-01-15T03:40:05;95022.75;;;5.10;58.53
13581;BME280;6861;46.170;7.222;2024-01-15T03:42:33;95014.72;;;5.07;58.28
13581;BME280;6861;46.170;7.222;2024-01-15T03:45:02;95013.34;;;4.94;58.79
13581;BME280;6861;46.170;7.222;2024-01-15T03:47:32;95011.75;;;4.88;59.27
13581;BME280;6861;46.170;7.222;2024-01-15T03:50:00;95021.09;;;4.89;59.11
13581;BME280;6861;46.170;7.222;2024-01-15T03:52:29;95006.59;;;4.93;59.09
13581;BME280;6861;46.170;7.222;2024-01-15T03:54:57;95007.13;;;4.95;59.17
13581;BME280;6861;46.170;7.222;2024-01-15T03:57:26;95000.41;;;4.99;59.28
13581;BME280;6861;46.170;7.222;2024-01-15T03:59:54;94994.97;;;5.01;59.34
13581;BME280;6861;46.170;7.222;2024-01-15T04:02:22;94992.13;;;5.02;59.71
13581;BME280;6861;46.170;7.222;2024-01-15T04:04:52;94978.66;;;5.05;59.46
13581;BME280;6861;46.170;7.222;2024-01-15T04:07:20;94985.13;;;5.03;60.36
13581;BME280;6861;46.170;7.222;2024-01-15T04:09:48;94978.66;;;5.05;60.46
13581;BME280;6861;46.170;7.222;2024-01-15T04:12:16;94965.19;;;5.08;60.13
13581;BME280;6861;46.170;7.222;2024-01-15T04:14:45;94961.03;;;5.07;60.01
13581;BME280;6861;46.170;7.222;2024-01-15T04:17:13;94975.56;;;5.08;60.15
13581;BME280;6861;46.170;7.222;2024-01-15T04:19:43;94978.19;;;5.13;59.96
13581;BME280;6861;46.170;7.222;2024-01-15T04:22:14;94969.38;;;5.19;59.96
13581;BME280;6861;46.170;7.222;2024-01-15T04:24:42;94961.06;;;5.22;60.09
13581;BME280;6861;46.170;7.222;2024-01-15T04:27:10;94960.56;;;5.25;59.76
13581;BME280;6861;46.170;7.222;2024-01-15T04:29:39;94970.94;;;5.31;59.89
13581;BME280;6861;46.170;7.222;2024-01-15T04:32:07;94977.94;;;5.30;60.01
13581;BME280;6861;46.170;7.222;2024-01-15T04:34:36;94966.50;;;5.21;60.46
13581;BME280;6861;46.170;7.222;2024-01-15T04:37:04;94966.22;;;5.02;60.38
13581;BME280;6861;46.170;7.222;2024-01-15T04:39:34;94960.94;;;4.82;60.71
13581;BME280;6861;46.170;7.222;2024-01-15T04:42:03;94962.94;;;4.65;60.86
13581;BME280;6861;46.170;7.222;2024-01-15T04:44:32;94969.63;;;4.60;61.33
13581;BME280;6861;46.170;7.222;2024-01-15T04:47:00;94973.22;;;4.54;61.14
13581;BME280;6861;46.170;7.222;2024-01-15T04:49:28;94981.47;;;4.46;61.26
13581;BME280;6861;46.170;7.222;2024-01-15T04:51:57;94984.25;;;4.35;61.14
13581;BME280;6861;46.170;7.222;2024-01-15T04:54:25;94975.91;;;4.22;61.70
13581;BME280;6861;46.170;7.222;2024-01-15T04:56:54;94983.63;;;4.17;61.87
13581;BME280;6861;46.170;7.222;2024-01-15T04:59:23;94971.47;;;4.18;61.41
13581;BME280;6861;46.170;7.222;2024-01-15T05:01:51;94977.69;;;4.17;62.13
13581;BME280;6861;46.170;7.222;2024-01-15T05:04:19;94980.81;;;4.19;61.81
13581;BME280;6861;46.170;7.222;2024-01-15T05:06:48;94975.66;;;4.24;61.51
13581;BME280;6861;46.170;7.222;2024-01-15T05:09:16;94972.56;;;4.27;60.97
13581;BME280;6861;46.170;7.222;2024-01-15T05:11:45;94986.06;;;4.29;61.31
13581;BME280;6861;46.170;7.222;2024-01-15T05:14:14;94973.09;;;4.29;61.17
13581;BME280;6861;46.170;7.222;2024-01-15T05:16:46;94975.66;;;4.24;61.40
13581;BME280;6861;46.170;7.222;2024-01-15T05:19:15;94985.47;;;4.22;61.68
13581;BME280;6861;46.170;7.222;2024-01-15T05:21:44;94984.13;;;4.14;61.24
13581;BME280;6861;46.170;7.222;2024-01-15T05:24:12;94966.19;;;4.03;61.58
13581;BME280;6861;46.170;7.222;2024-01-15T05:26:40;94958.63;;;3.96;61.88
13581;BME280;6861;46.170;7.222;2024-01-15T05:29:08;94967.16;;;3.97;61.67
13581;BME280;6861;46.170;7.222;2024-01-15T05:31:38;94967.41;;;3.95;61.93
13581;BME280;6861;46.170;7.222;2024-01-15T05:34:06;94970.00;;;3.95;62.18
13581;BME280;6861;46.170;7.222;2024-01-15T05:36:35;94966.16;;;3.98;61.71
13581;BME280;6861;46.170;7.222;2024-01-15T05:39:06;94950.66;;;4.03;62.18
13581;BME280;6861;46.170;7.222;2024-01-15T05:41:35;94956.13;;;4.06;61.87
13581;BME280;6861;46.170;7.222;2024-01-15T05:44:03;94950.94;;;4.06;61.62
13581;BME280;6861;46.170;7.222;2024-01-15T05:46:32;94946.53;;;4.07;62.01
13581;BME280;6861;46.170;7.222;2024-01-15T05:49:01;94950.69;;;4.08;62.09
13581;BME280;6861;46.170;7.222;2024-01-15T05:51:30;94937.25;;;4.11;62.23
13581;BME280;6861;46.170;7.222;2024-01-15T05:53:58;94940.38;;;4.13;61.56
13581;BME280;6861;46.170;7.222;2024-01-15T05:56:26;94933.66;;;4.17;61.89
13581;BME280;6861;46.170;7.222;2024-01-15T05:58:54;94948.22;;;4.23;61.90
13581;BME280;6861;46.170;7.222;2024-01-15T06:01:22;94941.50;;;4.27;61.36
13581;BME280;6861;46.170;7.222;2024-01-15T06:03:52;94938.94;;;4.32;61.65
13581;BME280;6861;46.170;7.222;2024-01-15T06:06:22;94939.44;;;4.29;61.91
13581;BME280;6861;46.170;7.222;2024-01-15T06:08:50;94946.78;;;4.05;62.30
13581;BME280;6861;46.170;7.222;2024-01-15T06:11:18;94946.31;;;3.76;62.84
13581;BME280;6861;46.170;7.222;2024-01-15T06:13:47;94953.84;;;3.51;62.65
13581;BME280;6861;46.170;7.222;2024-01-15T06:16:15;94961.72;;;3.34;63.01
13581;BME280;6861;46.170;7.222;2024-01-15T06:18:46;94961.38;;;3.25;63.19
13581;BME280;6861;46.170;7.222;2024-01-15T06:21:15;94968.06;;;3.21;63.91
13581;BME280;6861;46.170;7.222;2024-01-15T06:23:44;94963.66;;;3.22;63.84
13581;BME280;6861;46.170;7.222;2024-01-15T06:26:13;94968.59;;;3.23;63.26
13581;BME280;6861;46.170;7.222;2024-01-15T06:28:41;94972.25;;;3.27;63.55
13581;BME280;6861;46.170;7.222;2024-01-15T06:31:09;94973.88;;;3.34;63.23
13581;BME280;6861;46.170;7.222;2024-01-15T06:33:38;94970.38;;;3.45;63.84
13581;BME280;6861;46.170;7.222;2024-01-15T06:36:07;94972.78;;;3.56;63.82
13581;BME280;6861;46.170;7.222;2024-01-15T06:38:36;94970.03;;;3.68;63.56
13581;BME280;6861;46.170;7.222;2024-01-15T06:41:05;94973.75;;;3.77;63.05
13581;BME280;6861;46.170;7.222;2024-01-15T06:43:34;94973.28;;;3.85;62.75
13581;BME280;6861;46.170;7.222;2024-01-15T06:46:02;94967.13;;;3.91;63.13
13581;BME280;6861;46.170;7.222;2024-01-15T06:48:34;94968.72;;;3.98;62.93
13581;BME280;6861;46.170;7.222;2024-01-15T06:51:03;94964.63;;;4.02;62.91
13581;BME280;6861;46.170;7.222;2024-01-15T06:53:31;94965.19;;;4.09;62.92
13581;BME280;6861;46.170;7.222;2024-01-15T06:55:59;94955.41;;;4.16;62.89
13581;BME280;6861;46.170;7.222;2024-01-15T06:58:30;94962.75;;;4.29;62.46
13581;BME280;6861;46.170;7.222;2024-01-15T07:00:59;94958.13;;;4.41;62.42
13581;BME280;6861;46.170;7.222;2024-01-15T07:03:27;94954.28;;;4.49;62.23
13581;BME280;6861;46.170;7.222;2024-01-15T07:05:56;94949.66;;;4.56;62.02
13581;BME280;6861;46.170;7.222;2024-01-15T07:08:24;94958.25;;;4.61;62.08
13581;BME280;6861;46.170;7.222;2024-01-15T07:10:52;94947.91;;;4.67;61.83
13581;BME280;6861;46.170;7.222;2024-01-15T07:13:20;94949.50;;;4.73;61.69
13581;BME280;6861;46.170;7.222;2024-01-15T07:15:50;94957.00;;;4.69;61.68
13581;BME280;6861;46.170;7.222;2024-01-15T07:18:19;94957.69;;;4.54;62.11
13581;BME280;6861;46.170;7.222;2024-01-15T07:20:47;94967.47;;;4.42;62.37
13581;BME280;6861;46.170;7.222;2024-01-15T07:23:15;94956.03;;;4.33;62.63
13581;BME280;6861;46.170;7.222;2024-01-15T07:25:44;94960.16;;;4.29;62.63
13581;BME280;6861;46.170;7.222;2024-01-15T07:28:12;94959.09;;;4.25;62.69
13581;BME280;6861;46.170;7.222;2024-01-15T07:30:40;94962.25;;;4.32;62.50
13581;BME280;6861;46.170;7.222;2024-01-15T07:33:10;94964.09;;;4.42;62.24
13581;BME280;6861;46.170;7.222;2024-01-15T07:35:39;94964.16;;;4.52;62.25
13581;BME280;6861;46.170;7.222;2024-01-15T07:38:07;94953.84;;;4.62;62.01
13581;BME280;6861;46.170;7.222;2024-01-15T07:40:38;94958.56;;;4.70;61.87
13581;BME280;6861;46.170;7.222;2024-01-15T07:43:07;94949.00;;;4.76;62.11
13581;BME280;6861;46.170;7.222;2024-01-15T07:45:35;94958.84;;;4.79;61.61
13581;BME280;6861;46.170;7.222;2024-01-15T07:48:05;94965.06;;;4.78;61.66
13581;BME280;6861;46.170;7.222;2024-01-15T07:50:35;94956.50;;;4.77;61.74
13581;BME280;6861;46.170;7.222;2024-01-15T07:53:03;94953.16;;;4.82;61.86
13581;BME280;6861;46.170;7.222;2024-01-15T07:55:31;94953.44;;;4.85;61.10
13581;BME280;6861;46.170;7.222;2024-01-15T07:58:00;94954.78;;;4.93;61.93
13581;BME280;6861;46.170;7.222;2024-01-15T08:00:41;94954.28;;;5.01;61.51
13581;BME280;6861;46.170;7.222;2024-01-15T08:03:11;94957.94;;;5.05;61.05
13581;BME280;6861;46.170;7.222;2024-01-15T08:05:40;94962.59;;;5.08;61.50
13581;BME280;6861;46.170;7.222;2024-01-15T08:08:09;94955.09;;;5.12;61.80
13581;BME280;6861;46.170;7.222;2024-01-15T08:10:37;94959.00;;;5.19;61.43
13581;BME280;6861;46.170;7.222;2024-01-15T08:13:05;94967.81;;;5.28;61.55
13581;BME280;6861;46.170;7.222;2024-01-15T08:15:36;94970.19;;;5.40;60.92
13581;BME280;6861;46.170;7.222;2024-01-15T08:18:04;94964.22;;;5.45;60.82
13581;BME280;6861;46.170;7.222;2024-01-15T08:20:33;94967.38;;;5.52;60.45
13581;BME280;6861;46.170;7.222;2024-01-15T08:23:03;94974.13;;;5.53;60.82
13581;BME280;6861;46.170;7.222;2024-01-15T08:25:31;94965.75;;;5.31;60.72
13581;BME280;6861;46.170;7.222;2024-01-15T08:28:00;94969.88;;;5.16;61.29
13581;BME280;6861;46.170;7.222;2024-01-15T08:30:28;94963.06;;;4.95;61.65
13581;BME280;6861;46.170;7.222;2024-01-15T08:32:56;94965.59;;;4.80;62.02
13581;BME280;6861;46.170;7.222;2024-01-15T08:35:34;94966.63;;;4.79;62.11
13581;BME280;6861;46.170;7.222;2024-01-15T08:38:04;94965.38;;;4.86;62.27
13581;BME280;6861;46.170;7.222;2024-01-15T08:40:32;94953.72;;;4.89;61.83
13581;BME280;6861;46.170;7.222;2024-01-15T08:43:01;94953.72;;;4.89;62.09
13581;BME280;6861;46.170;7.222;2024-01-15T08:45:29;94960.47;;;4.90;61.83
13581;BME280;6861;46.170;7.222;2024-01-15T08:47:58;94950.88;;;4.96;61.93
13581;BME280;6861;46.170;7.222;2024-01-15T08:50:28;94947.56;;;5.05;61.60
13581;BME280;6861;46.170;7.222;2024-01-15T08:52:57;94955.88;;;5.12;61.87
13581;BME280;6861;46.170;7.222;2024-01-15T08:55:27;94943.94;;;5.21;61.32
13581;BME280;6861;46.170;7.222;2024-01-15T08:57:55;94947.84;;;5.29;61.34
13581;BME280;6861;46.170;7.222;2024-01-15T09:00:23;94950.72;;;5.38;61.00
13581;BME280;6861;46.170;7.222;2024-01-15T09:02:52;94941.41;;;5.42;61.03
13581;BME280;6861;46.170;7.222;2024-01-15T09:05:20;94939.31;;;5.34;61.32
13581;BME280;6861;46.170;7.222;2024-01-15T09:07:48;94939.53;;;5.22;61.49
13581;BME280;6861;46.170;7.222;2024-01-15T09:10:19;94933.06;;;5.09;61.74
13581;BME280;6861;46.170;7.222;2024-01-15T09:12:48;94933.81;;;5.05;61.92
13581;BME280;6861;46.170;7.222;2024-01-15T09:15:17;94931.44;;;4.93;61.80
13581;BME280;6861;46.170;7.222;2024-01-15T09:17:46;94938.91;;;4.79;62.37
13581;BME280;6861;46.170;7.222;2024-01-15T09:20:14;94945.38;;;4.77;62.35
13581;BME280;6861;46.170;7.222;2024-01-15T09:22:43;94949.25;;;4.79;62.33
13581;BME280;6861;46.170;7.222;2024-01-15T09:25:11;94956.03;;;4.85;62.20
13581;BME280;6861;46.170;7.222;2024-01-15T09:27:39;94964.34;;;4.92;61.91
13581;BME280;6861;46.170;7.222;2024-01-15T09:30:10;94960.50;;;5.00;61.92
13581;BME280;6861;46.170;7.222;2024-01-15T09:32:39;94948.59;;;5.09;61.81
13581;BME280;6861;46.170;7.222;2024-01-15T09:35:08;94944.47;;;5.23;61.49
13581;BME280;6861;46.170;7.222;2024-01-15T09:37:38;94950.22;;;5.41;61.68
13581;BME280;6861;46.170;7.222;2024-01-15T09:40:14;94960.09;;;5.59;61.04
13581;BME280;6861;46.170;7.222;2024-01-15T09:42:44;94972.06;;;5.75;60.78
13581;BME280;6861;46.170;7.222;2024-01-15T09:45:15;94972.06;;;5.75;60.44
13581;BME280;6861;46.170;7.222;2024-01-15T09:47:43;94989.19;;;5.66;60.86
13581;BME280;6861;46.170;7.222;2024-01-15T09:50:13;94967.59;;;5.45;61.55
13581;BME280;6861;46.170;7.222;2024-01-15T09:52:43;94952.25;;;5.28;61.45
13581;BME280;6861;46.170;7.222;2024-01-15T09:55:12;94944.47;;;5.23;61.60
13581;BME280;6861;46.170;7.222;2024-01-15T09:57:44;94936.16;;;5.21;61.91
13581;BME280;6861;46.170;7.222;2024-01-15T10:00:17;94924.25;;;5.31;62.02
13581;BME280;6861;46.170;7.222;2024-01-15T10:02:45;94923.25;;;5.47;61.36
13581;BME280;6861;46.170;7.222;2024-01-15T10:05:14;94903.81;;;5.65;60.91
13581;BME280;6861;46.170;7.222;2024-01-15T10:07:43;94903.56;;;5.86;60.82
13581;BME280;6861;46.170;7.222;2024-01-15T10:10:11;94911.88;;;6.04;60.84
13581;BME280;6861;46.170;7.222;2024-01-15T10:12:40;94912.34;;;6.21;59.96
13581;BME280;6861;46.170;7.222;2024-01-15T10:15:09;94909.72;;;6.36;59.44
13581;BME280;6861;46.170;7.222;2024-01-15T10:17:40;94915.94;;;6.50;59.06
13581;BME280;6861;46.170;7.222;2024-01-15T10:20:10;94892.50;;;6.66;60.10
13581;BME280;6861;46.170;7.222;2024-01-15T10:22:40;94902.63;;;6.67;59.78
13581;BME280;6861;46.170;7.222;2024-01-15T10:25:11;94912.28;;;6.56;59.31
13581;BME280;6861;46.170;7.222;2024-01-15T10:27:40;94898.75;;;6.54;60.43
13581;BME280;6861;46.170;7.222;2024-01-15T10:30:10;94882.41;;;6.49;60.65
13581;BME280;6861;46.170;7.222;2024-01-15T10:32:57;94886.59;;;6.45;59.83
13581;BME280;6861;46.170;7.222;2024-01-15T10:35:27;94892.31;;;6.42;59.72
13581;BME280;6861;46.170;7.222;2024-01-15T10:37:56;94902.69;;;6.42;59.65
13581;BME280;6861;46.170;7.222;2024-01-15T10:40:24;94902.69;;;6.42;59.71
13581;BME280;6861;46.170;7.222;2024-01-15T10:42:56;94912.31;;;6.41;60.63
13581;BME280;6861;46.170;7.222;2024-01-15T10:45:24;94892.56;;;6.45;60.69
13581;BME280;6861;46.170;7.222;2024-01-15T10:47:54;94875.13;;;6.51;60.34
13581;BME280;6861;46.170;7.222;2024-01-15T10:50:26;94883.94;;;6.55;59.03
13581;BME280;6861;46.170;7.222;2024-01-15T10:52:55;94878.97;;;6.64;59.56
13581;BME280;6861;46.170;7.222;2024-01-15T10:55:25;94887.78;;;6.73;60.04
13581;BME280;6861;46.170;7.222;2024-01-15T10:57:54;94890.63;;;6.81;59.32
13581;BME280;6861;46.170;7.222;2024-01-15T11:00:24;94891.63;;;6.90;59.72
13581;BME280;6861;46.170;7.222;2024-01-15T11:02:54;94890.25;;;6.98;58.19
13581;BME280;6861;46.170;7.222;2024-01-15T11:05:23;94899.56;;;7.04;59.49
13581;BME280;6861;46.170;7.222;2024-01-15T11:07:55;94889.66;;;7.11;59.30
13581;BME280;6861;46.170;7.222;2024-01-15T11:10:39;94891.75;;;7.09;57.92
13581;BME280;6861;46.170;7.222;2024-01-15T11:13:14;94865.78;;;6.99;58.68
13581;BME280;6861;46.170;7.222;2024-01-15T11:15:59;94861.69;;;6.93;59.22
13581;BME280;6861;46.170;7.222;2024-01-15T11:18:31;94865.56;;;6.96;58.43
13581;BME280;6861;46.170;7.222;2024-01-15T11:21:22;94868.66;;;6.98;58.99
13581;BME280;6861;46.170;7.222;2024-01-15T11:23:54;94834.63;;;6.94;59.14
13581;BME280;6861;46.170;7.222;2024-01-15T11:26:35;94861.47;;;6.89;58.94
13581;BME280;6861;46.170;7.222;2024-01-15T11:29:05;94867.66;;;6.94;58.27
13581;BME280;6861;46.170;7.222;2024-01-15T11:32:04;94841.88;;;6.97;58.77
13581;BME280;6861;46.170;7.222;2024-01-15T11:34:54;94864.47;;;7.02;58.80
13581;BME280;6861;46.170;7.222;2024-01-15T11:37:26;94857.94;;;7.09;59.11
13581;BME280;6861;46.170;7.222;2024-01-15T11:39:56;94867.78;;;7.17;58.87
13581;BME280;6861;46.170;7.222;2024-01-15T11:42:24;94863.81;;;7.25;57.62
13581;BME280;6861;46.170;7.222;2024-01-15T11:44:55;94854.16;;;7.31;58.42
13581;BME280;6861;46.170;7.222;2024-01-15T11:50:33;94854.38;;;7.39;58.10
13581;BME280;6861;46.170;7.222;2024-01-15T11:53:03;94848.91;;;7.41;57.21
13581;BME280;6861;46.170;7.222;2024-01-15T11:55:39;94871.28;;;7.37;57.64
13581;BME280;6861;46.170;7.222;2024-01-15T11:58:09;94857.50;;;7.36;57.09
13581;BME280;6861;46.170;7.222;2024-01-15T12:00:39;94860.13;;;7.36;57.22
13581;BME280;6861;46.170;7.222;2024-01-15T12:03:09;94853.59;;;7.39;57.92
13581;BME280;6861;46.170;7.222;2024-01-15T12:05:40;94848.91;;;7.41;57.35
13581;BME280;6861;46.170;7.222;2024-01-15T12:08:09;94844.44;;;7.46;58.02
13581;BME280;6861;46.170;7.222;2024-01-15T12:10:40;94833.72;;;7.53;58.09
13581;BME280;6861;46.170;7.222;2024-01-15T12:13:10;94836.81;;;7.55;58.12
13581;BME280;6861;46.170;7.222;2024-01-15T12:15:41;94832.88;;;7.57;57.14
13581;BME280;6861;46.170;7.222;2024-01-15T12:18:13;94835.25;;;7.54;56.94
13581;BME280;6861;46.170;7.222;2024-01-15T12:20:44;94838.16;;;7.47;56.90
13581;BME280;6861;46.170;7.222;2024-01-15T12:23:15;94834.00;;;7.46;58.35
13581;BME280;6861;46.170;7.222;2024-01-15T12:25:44;94817.09;;;7.49;57.56
13581;BME280;6861;46.170;7.222;2024-01-15T12:28:12;94822.28;;;7.49;58.18
13581;BME280;6861;46.170;7.222;2024-01-15T12:30:41;94817.63;;;7.46;57.13
13581;BME280;6861;46.170;7.222;2024-01-15T12:33:09;94832.72;;;7.44;57.53
13581;BME280;6861;46.170;7.222;2024-01-15T12:35:38;94824.94;;;7.44;57.48
13581;BME280;6861;46.170;7.222;2024-01-15T12:38:07;94824.38;;;7.47;58.57
13581;BME280;6861;46.170;7.222;2024-01-15T12:40:36;94819.66;;;7.54;58.61
13581;BME280;6861;46.170;7.222;2024-01-15T12:43:06;94819.09;;;7.57;57.56
13581;BME280;6861;46.170;7.222;2024-01-15T12:45:34;94837.00;;;7.64;58.28
13581;BME280;6861;46.170;7.222;2024-01-15T12:48:05;94836.91;;;7.74;56.92
13581;BME280;6861;46.170;7.222;2024-01-15T12:50:34;94817.09;;;7.78;56.79
13581;BME280;6861;46.170;7.222;2024-01-15T12:53:02;94808.50;;;7.77;57.03
13581;BME280;6861;46.170;7.222;2024-01-15T12:55:32;94819.44;;;7.79;56.75
13581;BME280;6861;46.170;7.222;2024-01-15T12:58:01;94810.25;;;7.82;57.16
13581;BME280;6861;46.170;7.222;2024-01-15T13:00:29;94811.53;;;7.84;56.87
13581;BME280;6861;46.170;7.222;2024-01-15T13:02:58;94818.84;;;7.82;57.93
13581;BME280;6861;46.170;7.222;2024-01-15T13:05:28;94822.06;;;7.74;57.54
13581;BME280;6861;46.170;7.222;2024-01-15T13:07:57;94819.56;;;7.64;58.18
13581;BME280;6861;46.170;7.222;2024-01-15T13:10:26;94801.47;;;7.49;57.15
13581;BME280;6861;46.170;7.222;2024-01-15T13:12:58;94818.22;;;7.38;58.58
13581;BME280;6861;46.170;7.222;2024-01-15T13:15:26;94818.53;;;7.31;58.48
13581;BME280;6861;46.170;7.222;2024-01-15T13:17:54;94832.84;;;7.29;58.09
13581;BME280;6861;46.170;7.222;2024-01-15T13:20:23;94818.00;;;7.29;57.54
13581;BME280;6861;46.170;7.222;2024-01-15T13:22:51;94832.56;;;7.30;58.48
13581;BME280;6861;46.170;7.222;2024-01-15T13:25:20;94844.25;;;7.33;58.20
13581;BME280;6861;46.170;7.222;2024-01-15T13:27:48;94818.72;;;7.40;58.02
13581;BME280;6861;46.170;7.222;2024-01-15T13:30:18;94824.16;;;7.43;58.51
13581;BME280;6861;46.170;7.222;2024-01-15T13:32:46;94826.47;;;7.45;58.01
13581;BME280;6861;46.170;7.222;2024-01-15T13:35:15;94832.78;;;7.39;59.05
13581;BME280;6861;46.170;7.222;2024-01-15T13:37:43;94816.69;;;7.32;58.72